Overview Statistics Trail Chart Weather Telemetry Raw packets
 

This is the latest recevied weather packets stored in our database for station/object DK6GC-10. If no packets are shown the sender has not sent any weather packets the latest 10 day(s).

<< 25 26 27 28 29 30 31 >>
Time Temp. Humidity Pressure Rain* Wind** Luminosity Snow
1788096620 26.11° C 57% 1016.5 hPa - - - -
1788095720 25.56° C 58% 1016.8 hPa - - - -
1788094820 26.11° C 55% 1016.9 hPa - - - -
1788093920 25.56° C 59% 1017.1 hPa - - - -
1788093020 25° C 61% 1017.2 hPa - - - -
1788092119 24.44° C 63% 1017.4 hPa - - - -
1788091224 24.44° C 64% 1017.5 hPa - - - -
1788090324 24.44° C 65% 1017.5 hPa - - - -
1788089423 23.89° C 67% 1017.7 hPa - - - -
1788088523 23.89° C 65% 1017.7 hPa - - - -
1788087623 22.22° C 70% 1017.9 hPa - - - -
1788086723 22.78° C 68% 1018 hPa - - - -
1788085822 22.78° C 68% 1018 hPa - - - -
1788084922 22.22° C 68% 1017.9 hPa - - - -
1788084022 22.78° C 68% 1017.9 hPa - - - -
1788083122 23.33° C 65% 1018 hPa - - - -
1788082222 23.33° C 66% 1018 hPa - - - -
1788081322 23.89° C 65% 1017.9 hPa - - - -
1788080422 23.33° C 69% 1018 hPa - - - -
1788079521 22.78° C 70% 1018.1 hPa - - - -
1788078621 23.33° C 69% 1018 hPa - - - -
1788077721 22.22° C 72% 1017.9 hPa - - - -
1788076821 22.22° C 73% 1018 hPa - - - -
1788075931 21.67° C 72% 1018 hPa - - - -
1788075020 21.11° C 72% 1017.9 hPa - - - -

* Rain since midnight (hover to see other rain measurements)
** Current wind speed in m/s (hover to see current wind gust speed)